AirNav   Air Wisconsin Up To $57,000 Bonus
 
 1628 users online  

MA87 Cape Air Seaplanes on Boston Harbor Seaplane Base
Boston, Massachusetts, USA

GOING TO BOSTON?


FAA INFORMATION EFFECTIVE 09 SEPTEMBER 2021

Location

FAA Identifier: MA87
Lat/Long: 42-21-09.0000N 071-01-33.0000W
42-21.150000N 071-01.550000W
42.3525000,-71.0258333
(estimated)
Elevation: 0 ft. / 0 m
From city: 1 mile SE of BOSTON, MA
Time zone: UTC -4 (UTC -5 during Standard Time)
Zip code: 02127

Seaplane Base Operations

Seaplane Base use: Private use. Permission required prior to landing
Activation date: 09/2016
Control tower: no
ARTCC: BOSTON CENTER
FSS: BRIDGEPORT FLIGHT SERVICE STATION
Attendance: 
Segmented circle: no

Seaplane Base Communications

WX ASOS at BOS (1.1 nm NE): 135.0 (617-567-5762)
WX ASOS at OWD (12 nm SW): 119.95 (781-762-4314)
WX ASOS at BED (14 nm NW): 124.6 (781-274-9733)
WX ASOS at BVY (15 nm N): 119.2 (978-921-5042)

Nearby radio navigation aids

VOR radial/distance  VOR name  Freq  Var
BOSr276/1.6BOSTON VOR/DME112.7016W
MHTr169/34.5MANCHESTER VOR/DME114.4015W

 
NDB name  Hdg/Dist  Freq  Var  ID
STOGE033/14.739715WOW --- .--
PROVINCETOWN312/39.538916WPVC .--. ...- -.-.

Seaplane Base Services

Runway Information

Runway 14W/32W

Dimensions: 2500 x 60 ft. / 762 x 18 m
Surface: water
RUNWAY 14W  RUNWAY 32W
Latitude: 42-21.150000N
Longitude: 071-01.550000W
Elevation: 0.0 ft.
Traffic pattern: leftleft

Seaplane Base Ownership and Management from official FAA records

Ownership: Privately-owned
Owner: HYANNIS AIR SERVICE, INC
660 BARNSTABLE RD
HYANNIS, MA 02601
Phone 508-862-9719
Manager: ANDREW BONNEY
660 BARNSTABLE RD
HYANNIS, MA 02601
Phone 508-862-9719

Additional Remarks

FOR CD CTC BOSTON ARTCC AT 603-879-6859.
IATA ID: BNH.

Instrument Procedures

There are no published instrument procedures at MA87.

Some nearby airports with instrument procedures:

KBOS - General Edward Lawrence Logan International Airport (1 nm NE)
KOWD - Norwood Memorial Airport (12 nm SW)
KBED - Laurence G Hanscom Field Airport (14 nm NW)
KBVY - Beverly Regional Airport (15 nm N)
KGHG - Marshfield Municipal Airport - George Harlow Field (22 nm SE)
 
Loc | Ops | Rwys | IFR | FBO | Links
Com | Nav | Svcs | Stats | Notes
Aerial photo
No photo
 
Airport distance calculator
Flying to Cape Air Seaplanes on Boston Harbor Seaplane Base? Find the distance to fly.

From to MA87

Sunrise and sunset
Times for 21-Sep-2021
 Local
(UTC-4)
 Zulu
(UTC)
Morning civil twilight06:0310:03
Sunrise06:3110:31
Sunset18:4322:43
Evening civil twilight19:1123:11

Current date and time
Zulu (UTC)  21-Sep-2021 20:10:30
Local (UTC-4)  21-Sep-2021 16:10:30
 
METAR
KBOS 211954Z 08010KT 10SM SCT050 SCT250 22/17 A3034 RMK AO2 SLP274 T02220172
KOWD 
12nm SW 
211953Z 21006KT 10SM SCT046 24/13 A3033 RMK AO2 SLP269 T02440133 $
KBED 
14nm NW 
211951Z 12008KT 10SM BKN032 BKN043 23/17 A3033 RMK AO2 SLP282 T02330167
KBVY 
15nm N 
211953Z 14010KT 10SM CLR 22/17 A3034 RMK AO2 SLP270 T02170172
TAF
KBOS 211318Z 2113/2218 03005KT P6SM FEW015 BKN025 FM211500 08008KT P6SM SCT030 SCT100 TEMPO 2115/2116 BKN030 FM211600 08008KT P6SM SCT100 FM212300 13009KT P6SM SCT100 FM220400 15007KT P6SM BKN045 FM221100 14007KT P6SM BKN025 FM221400 14008KT P6SM BKN035
KBED 
14nm NW 
211421Z 2114/2212 09005KT P6SM BKN025 TEMPO 2116/2117 SCT025 SCT035 FM211700 16007KT P6SM SCT035 SCT100 FM220400 14004KT P6SM BKN030 FM220800 14004KT P6SM BKN008
NOTAMs
Click for the latest NOTAMs
NOTAMs are issued by the DoD/FAA and will open in a separate window not controlled by AirNav.

 

 
 

Would you like to see your business listed on this page?

 If your business provides an interesting product or service to pilots, flight crews, aircraft, or users of the Cape Air Seaplanes on Boston Harbor Seaplane Base, you should consider listing it here.  To start the listing process, click on the button below
 
Add a business
 

Other Pages about Cape Air Seaplanes on Boston Harbor Seaplane Base

Update a link
 
Copyright © AirNav, LLC. All rights reserved. Privacy Policy  Contact